createdAt,value
2022-11-19T00:00:00.158Z,1.7
2022-11-19T00:05:00.189Z,1.7
2022-11-19T00:10:00.226Z,1.7
2022-11-19T00:15:00.153Z,1.7
2022-11-19T00:20:00.508Z,1.7
2022-11-19T00:25:00.160Z,1.7
2022-11-19T00:30:00.280Z,1.7
2022-11-19T00:35:00.183Z,1.6
2022-11-19T00:40:00.190Z,1.6
2022-11-19T00:45:00.157Z,1.5
2022-11-19T00:50:00.195Z,1.5
2022-11-19T00:55:00.203Z,1.4
2022-11-19T01:00:00.209Z,1.3
2022-11-19T01:05:00.161Z,1.3
2022-11-19T01:10:00.207Z,1.3
2022-11-19T01:15:00.156Z,1.2
2022-11-19T01:20:00.328Z,1.2
2022-11-19T01:25:00.208Z,1.2
2022-11-19T01:30:00.201Z,1.1
2022-11-19T01:35:00.191Z,1.0
2022-11-19T01:40:00.199Z,1.0
2022-11-19T01:45:00.215Z,0.9
2022-11-19T01:50:00.152Z,0.9
2022-11-19T01:55:00.201Z,0.8
2022-11-19T02:00:00.164Z,0.8
2022-11-19T02:05:00.182Z,0.8
2022-11-19T02:10:00.217Z,0.7
2022-11-19T02:15:00.201Z,0.7
2022-11-19T02:20:00.184Z,0.7
2022-11-19T02:25:00.381Z,0.7
2022-11-19T02:30:00.173Z,0.7
2022-11-19T02:35:00.201Z,0.6
2022-11-19T02:40:00.210Z,0.6
2022-11-19T02:45:00.268Z,0.6
2022-11-19T02:50:00.150Z,0.7
2022-11-19T02:55:00.212Z,0.6
2022-11-19T03:00:00.182Z,0.6
2022-11-19T03:05:00.155Z,0.6
2022-11-19T03:10:00.213Z,0.6
2022-11-19T03:15:00.189Z,0.5
2022-11-19T03:20:00.188Z,0.5
2022-11-19T03:25:00.199Z,0.5
2022-11-19T03:30:00.251Z,0.5
2022-11-19T03:35:00.184Z,0.5
2022-11-19T03:40:00.158Z,0.4
2022-11-19T03:45:00.207Z,0.4
2022-11-19T03:50:00.199Z,0.4
2022-11-19T03:55:00.229Z,0.4
2022-11-19T04:00:00.170Z,0.4
2022-11-19T04:05:00.230Z,0.4
2022-11-19T04:10:00.162Z,0.4
2022-11-19T04:15:00.204Z,0.4
2022-11-19T04:20:00.174Z,0.4
2022-11-19T04:25:00.201Z,0.4
2022-11-19T04:30:00.182Z,0.4
2022-11-19T04:35:00.221Z,0.3
2022-11-19T04:40:00.196Z,0.3
2022-11-19T04:45:00.215Z,0.3
2022-11-19T04:50:00.167Z,0.3
2022-11-19T04:55:00.203Z,0.3
2022-11-19T05:00:00.159Z,0.3
2022-11-19T05:05:00.185Z,0.3
2022-11-19T05:10:00.211Z,0.3
2022-11-19T05:15:00.186Z,0.3
2022-11-19T05:20:00.187Z,0.2
2022-11-19T05:25:00.342Z,0.3
2022-11-19T05:30:00.167Z,0.2
2022-11-19T05:35:00.197Z,0.2
2022-11-19T05:40:00.237Z,0.2
2022-11-19T05:45:00.188Z,0.3
2022-11-19T05:50:00.194Z,0.3
2022-11-19T05:55:00.195Z,0.3
2022-11-19T06:00:00.198Z,0.3
2022-11-19T06:05:00.197Z,0.4
2022-11-19T06:10:00.236Z,0.4
2022-11-19T06:15:00.189Z,0.4
2022-11-19T06:20:00.248Z,0.5
2022-11-19T06:25:00.183Z,0.5
2022-11-19T06:30:00.232Z,0.5
2022-11-19T06:35:00.165Z,0.6
2022-11-19T06:40:00.201Z,0.6
2022-11-19T06:45:00.188Z,0.6
2022-11-19T06:50:00.234Z,0.6
2022-11-19T06:55:00.172Z,0.5
2022-11-19T07:00:00.210Z,0.5
2022-11-19T07:05:00.198Z,0.5
2022-11-19T07:10:00.197Z,0.5
2022-11-19T07:15:04.343Z,0.6
2022-11-19T07:20:00.216Z,0.6
2022-11-19T07:25:00.196Z,0.6
2022-11-19T07:30:00.251Z,0.7
2022-11-19T07:35:00.157Z,0.8
2022-11-19T07:40:00.209Z,1.0
2022-11-19T07:45:00.191Z,1.1
2022-11-19T07:50:00.224Z,1.3
2022-11-19T07:55:00.160Z,1.5
2022-11-19T08:00:00.192Z,1.7
2022-11-19T08:05:00.221Z,1.9
2022-11-19T08:10:00.200Z,2.0
2022-11-19T08:15:00.156Z,2.2
2022-11-19T08:20:00.380Z,2.3
2022-11-19T08:25:00.181Z,2.5
2022-11-19T08:30:00.225Z,2.6
2022-11-19T08:35:00.191Z,2.6
2022-11-19T08:40:00.203Z,2.8
2022-11-19T08:45:00.204Z,2.8
2022-11-19T08:50:00.189Z,3.0
2022-11-19T08:55:00.157Z,3.1
2022-11-19T09:00:05.956Z,3.3
2022-11-19T09:05:00.176Z,3.4
2022-11-19T09:10:00.226Z,3.5
2022-11-19T09:15:00.225Z,3.6
2022-11-19T09:20:00.178Z,3.7
2022-11-19T09:25:00.179Z,3.8
2022-11-19T09:30:00.295Z,3.9
2022-11-19T09:35:00.192Z,4.0
2022-11-19T09:40:00.218Z,4.1
2022-11-19T09:45:00.164Z,4.3
2022-11-19T09:50:00.197Z,4.4
2022-11-19T09:55:00.160Z,4.5
2022-11-19T10:00:00.249Z,4.5
2022-11-19T10:05:00.209Z,4.6
2022-11-19T10:10:00.233Z,4.7
2022-11-19T10:15:00.160Z,4.8
2022-11-19T10:20:00.220Z,4.9
2022-11-19T10:25:00.170Z,5.0
2022-11-19T10:30:00.222Z,5.1
2022-11-19T10:35:00.359Z,5.2
2022-11-19T10:40:00.173Z,5.3
2022-11-19T10:45:00.205Z,5.4
2022-11-19T10:50:00.195Z,5.4
2022-11-19T10:55:00.205Z,5.5
2022-11-19T11:00:00.188Z,5.6
2022-11-19T11:05:00.356Z,5.6
2022-11-19T11:10:00.203Z,5.7
2022-11-19T11:15:00.200Z,5.7
2022-11-19T11:20:00.221Z,5.8
2022-11-19T11:25:05.699Z,5.8
2022-11-19T11:30:00.222Z,5.8
2022-11-19T11:35:03.624Z,5.9
2022-11-19T11:40:00.252Z,6.0
2022-11-19T11:45:00.163Z,6.1
2022-11-19T11:50:00.192Z,6.3
2022-11-19T11:55:00.379Z,6.4
2022-11-19T12:00:00.176Z,6.6
2022-11-19T12:05:00.201Z,6.7
2022-11-19T12:10:00.218Z,6.9
2022-11-19T12:15:00.392Z,7.0
2022-11-19T12:20:00.236Z,7.1
2022-11-19T12:25:00.247Z,7.1
2022-11-19T12:30:00.275Z,7.2
2022-11-19T12:35:00.219Z,7.2
2022-11-19T12:40:00.250Z,7.3
2022-11-19T12:45:00.263Z,7.4
2022-11-19T12:50:00.287Z,7.5
2022-11-19T12:55:00.198Z,7.5
2022-11-19T13:00:00.230Z,7.6
2022-11-19T13:05:00.375Z,7.7
2022-11-19T13:10:00.181Z,7.7
2022-11-19T13:15:00.185Z,7.6
2022-11-19T13:20:00.288Z,7.5
2022-11-19T13:25:00.154Z,7.5
2022-11-19T13:30:00.202Z,7.4
2022-11-19T13:35:00.384Z,7.3
2022-11-19T13:40:00.207Z,7.3
2022-11-19T13:45:00.155Z,7.2
2022-11-19T13:50:00.203Z,7.1
2022-11-19T13:55:00.167Z,7.0
2022-11-19T14:00:00.208Z,6.9
2022-11-19T14:05:00.206Z,6.9
2022-11-19T14:10:00.203Z,6.9
2022-11-19T14:15:00.202Z,6.8
2022-11-19T14:20:00.219Z,6.8
2022-11-19T14:25:00.177Z,6.7
2022-11-19T14:30:00.210Z,6.7
2022-11-19T14:35:00.159Z,6.6
2022-11-19T14:40:00.260Z,6.5
2022-11-19T14:45:00.150Z,6.5
2022-11-19T14:50:00.196Z,6.5
2022-11-19T14:55:00.188Z,6.4
2022-11-19T15:00:00.228Z,6.4
2022-11-19T15:05:00.158Z,6.4
2022-11-19T15:10:00.200Z,6.3
2022-11-19T15:15:00.170Z,6.3
2022-11-19T15:20:00.221Z,6.2
2022-11-19T15:25:00.181Z,6.1
2022-11-19T15:30:00.184Z,6.1
2022-11-19T15:35:11.751Z,6.0
2022-11-19T15:40:00.186Z,6.0
2022-11-19T15:45:00.215Z,5.9
2022-11-19T15:50:00.169Z,5.8
2022-11-19T15:55:00.199Z,5.8
2022-11-19T16:00:00.233Z,5.7
2022-11-19T16:05:00.150Z,5.7
2022-11-19T16:10:00.346Z,5.6
2022-11-19T16:15:00.192Z,5.6
2022-11-19T16:20:00.329Z,5.5
2022-11-19T16:25:00.153Z,5.5
2022-11-19T16:30:00.372Z,5.5
2022-11-19T16:35:00.168Z,5.4
2022-11-19T16:40:00.194Z,5.4
2022-11-19T16:45:00.190Z,5.4
2022-11-19T16:50:00.195Z,5.3
2022-11-19T16:55:00.175Z,5.3
2022-11-19T17:00:00.206Z,5.2
2022-11-19T17:05:00.184Z,5.2
2022-11-19T17:10:00.227Z,5.1
2022-11-19T17:15:00.159Z,5.0
2022-11-19T17:20:00.214Z,5.0
2022-11-19T17:25:00.154Z,4.9
2022-11-19T17:30:00.355Z,4.9
2022-11-19T17:35:00.188Z,4.9
2022-11-19T17:40:00.208Z,4.8
2022-11-19T17:45:00.191Z,4.8
2022-11-19T17:50:00.194Z,4.8
2022-11-19T17:55:00.187Z,4.8
2022-11-19T18:00:00.202Z,4.7
2022-11-19T18:05:00.197Z,4.7
2022-11-19T18:10:00.197Z,4.7
2022-11-19T18:15:02.083Z,4.6
2022-11-19T18:20:00.186Z,4.7
2022-11-19T18:25:00.193Z,4.7
2022-11-19T18:30:00.153Z,4.7
2022-11-19T18:35:01.939Z,4.6
2022-11-19T18:40:00.201Z,4.6
2022-11-19T18:45:00.221Z,4.6
2022-11-19T18:50:00.175Z,4.6
2022-11-19T18:55:00.186Z,4.6
2022-11-19T19:00:00.225Z,4.6
2022-11-19T19:05:00.160Z,4.6
2022-11-19T19:10:00.185Z,4.6
2022-11-19T19:15:00.188Z,4.5
2022-11-19T19:20:00.211Z,4.5
2022-11-19T19:25:00.158Z,4.5
2022-11-19T19:30:00.382Z,4.5
2022-11-19T19:35:00.154Z,4.4
2022-11-19T19:40:00.199Z,4.5
2022-11-19T19:45:00.178Z,4.4
2022-11-19T19:50:00.199Z,4.4
2022-11-19T19:55:00.194Z,4.4
2022-11-19T20:00:02.711Z,4.3
2022-11-19T20:05:00.158Z,4.3
2022-11-19T20:10:00.198Z,4.3
2022-11-19T20:15:00.184Z,4.3
2022-11-19T20:20:00.223Z,4.3
2022-11-19T20:25:00.156Z,4.3
2022-11-19T20:30:00.331Z,4.3
2022-11-19T20:35:00.179Z,4.3
2022-11-19T20:40:00.198Z,4.2
2022-11-19T20:45:00.204Z,4.2
2022-11-19T20:50:00.166Z,4.2
2022-11-19T20:55:05.255Z,4.2
2022-11-19T21:00:00.187Z,4.2
2022-11-19T21:05:00.156Z,4.2
2022-11-19T21:10:03.434Z,4.2
2022-11-19T21:15:00.191Z,4.2
2022-11-19T21:20:00.152Z,4.1
2022-11-19T21:25:00.206Z,4.1
2022-11-19T21:30:00.166Z,4.1
2022-11-19T21:35:00.200Z,4.1
2022-11-19T21:40:00.183Z,4.1
2022-11-19T21:45:00.207Z,4.0
2022-11-19T21:50:00.180Z,3.9
2022-11-19T21:55:00.198Z,4.0
2022-11-19T22:00:00.212Z,4.0
2022-11-19T22:05:00.162Z,4.1
2022-11-19T22:10:00.190Z,4.2
2022-11-19T22:15:00.182Z,4.1
2022-11-19T22:20:00.187Z,4.1
2022-11-19T22:25:00.151Z,4.1
2022-11-19T22:30:04.572Z,4.1
2022-11-19T22:35:00.155Z,4.0
2022-11-19T22:40:00.199Z,4.0
2022-11-19T22:45:00.193Z,4.0
2022-11-19T22:50:00.186Z,4.0
2022-11-19T22:55:00.164Z,3.9
2022-11-19T23:00:00.267Z,3.9
2022-11-19T23:05:00.178Z,3.9
2022-11-19T23:10:00.193Z,3.8
2022-11-19T23:15:00.163Z,3.7
2022-11-19T23:20:04.379Z,3.7
2022-11-19T23:25:00.157Z,3.7
2022-11-19T23:30:00.188Z,3.5
2022-11-19T23:35:00.207Z,3.5
2022-11-19T23:40:00.209Z,3.5
2022-11-19T23:45:00.158Z,3.5
2022-11-19T23:50:00.217Z,3.5
2022-11-19T23:55:00.159Z,3.5
